Time;durP1;ratioP1;P1;durP2;ratioP2;P2;SDS_P1;SDS_P2;PMS_P1;PMS_P2;Temp;Humidity;BMP_temperature;BMP_pressure;BME280_temperature;BME280_humidity;BME280_pressure;Samples;Min_cycle;Max_cycle;Signal;HPM_P1;HPM_P2
2023/11/28 00:01:00;;;;;;;4.40;1.63;;;;;;;5.31;71.73;96761.41;5093024;28;20180;-79
2023/11/28 00:03:26;;;;;;;2.15;1.23;;;;;;;5.47;68.22;96757.00;5094840;28;20521;-81
2023/11/28 00:05:51;;;;;;;3.83;1.80;;;;;;;5.58;69.36;96751.94;5094722;28;20019;-79
2023/11/28 00:08:20;;;;;;;4.10;2.28;;;;;;;5.66;68.12;96748.91;5077776;28;20024;-80
2023/11/28 00:10:46;;;;;;;3.00;1.75;;;;;;;5.65;68.31;96748.03;5078083;28;20038;-80
2023/11/28 00:13:11;;;;;;;1.70;1.25;;;;;;;5.70;66.70;96740.66;5077557;28;20135;-79
2023/11/28 00:15:37;;;;;;;3.00;1.67;;;;;;;5.78;68.74;96741.06;5060311;28;20020;-80
2023/11/28 00:18:03;;;;;;;2.20;1.30;;;;;;;5.78;68.23;96733.13;5083303;28;20042;-79
2023/11/28 00:20:29;;;;;;;2.20;1.30;;;;;;;5.74;67.28;96726.28;5094422;28;20091;-80
2023/11/28 00:22:54;;;;;;;2.20;1.02;;;;;;;5.72;69.63;96724.69;5077506;28;20016;-80
2023/11/28 00:25:20;;;;;;;2.75;1.45;;;;;;;5.65;70.44;96728.59;5074314;28;20505;-80
2023/11/28 00:27:46;;;;;;;1.60;0.98;;;;;;;5.70;68.08;96718.56;5057468;28;20498;-80
2023/11/28 00:30:13;;;;;;;1.88;1.45;;;;;;;5.70;68.82;96694.69;5057039;28;20051;-79
2023/11/28 00:32:38;;;;;;;1.70;1.27;;;;;;;5.58;70.46;96700.69;5073951;28;20027;-79
2023/11/28 00:35:04;;;;;;;1.48;1.17;;;;;;;5.58;69.06;96700.69;5090499;28;20016;-79
2023/11/28 00:37:30;;;;;;;3.65;1.60;;;;;;;5.55;68.93;96680.50;5073777;28;20024;-80
2023/11/28 00:39:55;;;;;;;2.65;1.55;;;;;;;5.56;67.88;96671.63;5057258;28;20058;-80
2023/11/28 00:42:22;;;;;;;3.05;1.40;;;;;;;5.59;68.65;96659.97;5111648;28;20023;-80
2023/11/28 00:44:47;;;;;;;4.10;1.50;;;;;;;5.53;70.79;96665.63;5077103;28;20084;-79
2023/11/28 00:47:13;;;;;;;3.75;1.92;;;;;;;5.56;72.00;96663.66;5093636;28;20028;-79
2023/11/28 00:49:42;;;;;;;7.00;2.58;;;;;;;5.41;73.47;96661.88;5073228;28;20135;-79
2023/11/28 00:52:08;;;;;;;6.07;2.50;;;;;;;5.34;73.17;96661.34;5090499;28;20027;-78
2023/11/28 00:54:34;;;;;;;4.57;2.08;;;;;;;5.29;73.52;96657.25;5073390;28;20024;-79
2023/11/28 00:57:00;;;;;;;5.80;1.90;;;;;;;5.27;73.31;96645.88;5073604;28;20032;-79
2023/11/28 00:59:26;;;;;;;2.10;1.27;;;;;;;5.16;73.06;96638.53;5090194;28;20497;-79
2023/11/28 01:01:52;;;;;;;3.35;1.55;;;;;;;5.26;73.96;96638.88;5072713;28;20024;-79
2023/11/28 01:04:18;;;;;;;6.45;2.85;;;;;;;5.21;77.62;96646.19;5073025;28;20023;-79
2023/11/28 01:06:44;;;;;;;3.80;2.30;;;;;;;5.14;79.41;96658.06;5090345;28;20372;-80
2023/11/28 01:09:09;;;;;;;5.85;1.75;;;;;;;5.06;80.47;96652.34;5089959;28;20031;-79
2023/11/28 01:11:35;;;;;;;2.95;2.10;;;;;;;4.97;82.05;96644.91;5090326;28;20027;-80
2023/11/28 01:14:01;;;;;;;1.98;1.10;;;;;;;5.03;80.83;96649.88;5090153;28;20464;-80
2023/11/28 01:16:26;;;;;;;0.10;0.10;;;;;;;5.12;79.22;96652.00;5090104;28;20028;-79
2023/11/28 01:18:52;;;;;;;0.30;0.30;;;;;;;5.07;79.98;96654.06;5073196;28;20422;-79
2023/11/28 01:21:17;;;;;;;0.30;0.30;;;;;;;5.01;81.04;96642.03;5072914;28;20028;-79
2023/11/28 01:23:43;;;;;;;0.25;0.25;;;;;;;5.01;80.47;96636.72;5090009;28;20024;-80
2023/11/28 01:26:08;;;;;;;1.45;1.25;;;;;;;5.08;78.13;96637.22;5081496;28;20043;-79
2023/11/28 01:28:34;;;;;;;0.17;0.17;;;;;;;4.99;82.08;96632.41;5069946;28;20024;-79
2023/11/28 01:31:00;;;;;;;0.30;0.30;;;;;;;5.03;78.73;96632.19;5069612;28;20606;-79
2023/11/28 01:33:25;;;;;;;0.40;0.40;;;;;;;5.04;77.38;96633.91;5088655;28;20122;-79
2023/11/28 01:35:51;;;;;;;0.10;0.10;;;;;;;5.10;78.50;96608.84;5073053;28;20020;-79
2023/11/28 01:38:16;;;;;;;3.45;0.75;;;;;;;5.17;76.56;96602.28;5089450;28;20115;-79
2023/11/28 01:40:42;;;;;;;0.10;0.10;;;;;;;5.13;77.73;96587.47;5089933;28;20392;-80
2023/11/28 01:43:08;;;;;;;0.10;0.10;;;;;;;5.08;80.23;96590.38;5089804;28;20059;-79
2023/11/28 01:45:33;;;;;;;0.20;0.20;;;;;;;4.96;82.17;96567.22;5072521;28;20394;-78
2023/11/28 01:47:59;;;;;;;0.20;0.20;;;;;;;5.02;78.93;96552.75;5066284;28;20024;-78
2023/11/28 01:50:24;;;;;;;1.23;1.00;;;;;;;5.18;79.31;96562.41;5069180;28;20044;-79
2023/11/28 01:52:50;;;;;;;0.85;0.30;;;;;;;5.16;80.85;96550.19;5052908;28;20036;-79
2023/11/28 01:55:17;;;;;;;0.20;0.20;;;;;;;5.20;81.70;96538.50;5069471;28;20489;-79
2023/11/28 01:57:43;;;;;;;0.45;0.45;;;;;;;5.43;81.46;96535.38;5052777;28;20081;-79
2023/11/28 02:00:09;;;;;;;1.02;0.35;;;;;;;5.50;84.58;96533.22;5069495;28;20025;-78
2023/11/28 02:02:35;;;;;;;0.20;0.20;;;;;;;5.58;86.56;96542.44;5069179;28;20017;-79
2023/11/28 02:05:01;;;;;;;0.10;0.10;;;;;;;5.73;85.82;96536.22;5052958;28;20028;-79
2023/11/28 02:07:26;;;;;;;0.20;0.20;;;;;;;5.80;84.93;96526.97;5069218;28;20020;-79
2023/11/28 02:09:52;;;;;;;0.20;0.20;;;;;;;5.91;83.78;96519.22;5069178;28;20058;-79
2023/11/28 02:12:18;;;;;;;0.17;0.17;;;;;;;6.00;81.58;96524.00;5070129;28;20047;-78
2023/11/28 02:14:44;;;;;;;1.58;0.73;;;;;;;5.96;81.18;96511.88;5073323;28;20027;-79
2023/11/28 02:17:10;;;;;;;0.43;0.28;;;;;;;5.80;85.01;96505.75;5073111;28;20094;-78
2023/11/28 02:19:35;;;;;;;2.17;1.10;;;;;;;5.66;88.36;96524.25;5073361;28;20033;-79
2023/11/28 02:22:01;;;;;;;2.30;0.75;;;;;;;5.59;85.43;96512.31;5056608;28;20048;-80
2023/11/28 02:24:28;;;;;;;0.15;0.15;;;;;;;5.52;85.80;96508.31;5056404;28;20032;-79
2023/11/28 02:26:53;;;;;;;0.28;0.28;;;;;;;5.50;87.60;96512.00;5073191;28;20028;-79
2023/11/28 02:29:19;;;;;;;0.20;0.20;;;;;;;5.45;87.55;96499.00;5073085;28;20021;-79
2023/11/28 02:31:44;;;;;;;1.35;0.52;;;;;;;5.45;89.51;96496.34;5072755;28;20024;-79
2023/11/28 02:34:10;;;;;;;0.40;0.40;;;;;;;5.47;86.98;96481.22;5074242;28;20089;-79
2023/11/28 02:36:35;;;;;;;0.10;0.10;;;;;;;5.50;85.12;96491.66;5074062;28;20029;-79
2023/11/28 02:39:01;;;;;;;0.20;0.20;;;;;;;5.55;81.16;96488.72;5056191;28;20028;-79
2023/11/28 02:41:27;;;;;;;0.35;0.35;;;;;;;5.44;81.56;96476.09;5073932;28;20123;-79
2023/11/28 02:43:52;;;;;;;0.20;0.20;;;;;;;5.26;81.71;96471.88;5073068;28;20036;-79
2023/11/28 02:46:18;;;;;;;2.05;1.05;;;;;;;5.20;81.29;96472.22;5072643;28;20410;-72
2023/11/28 02:48:43;;;;;;;0.35;0.35;;;;;;;5.12;84.23;96479.75;5076041;28;20035;-72
2023/11/28 02:51:11;;;;;;;0.10;0.10;;;;;;;5.07;86.10;96481.81;5096234;28;20075;-73
2023/11/28 02:53:36;;;;;;;0.80;0.40;;;;;;;5.11;79.59;96457.69;5096065;28;20042;-72
2023/11/28 02:56:02;;;;;;;2.08;0.50;;;;;;;5.10;82.08;96455.16;5079241;28;20027;-72
2023/11/28 02:58:28;;;;;;;0.52;0.25;;;;;;;5.14;81.53;96472.56;5114276;28;20055;-72
2023/11/28 03:00:53;;;;;;;0.82;0.82;;;;;;;5.10;83.59;96465.75;5114073;28;20015;-73
2023/11/28 03:03:19;;;;;;;0.35;0.35;;;;;;;5.10;82.60;96460.44;5097724;28;20027;-72
2023/11/28 03:05:45;;;;;;;0.52;0.52;;;;;;;5.07;83.10;96444.72;5075485;28;20024;-72
2023/11/28 03:08:10;;;;;;;4.60;0.90;;;;;;;5.05;84.92;96441.28;5075724;28;20043;-73
2023/11/28 03:10:36;;;;;;;0.10;0.10;;;;;;;5.07;83.48;96432.34;5093458;28;20070;-73
2023/11/28 03:13:01;;;;;;;0.75;0.75;;;;;;;5.04;83.53;96439.59;5075583;28;20085;-73
2023/11/28 03:15:27;;;;;;;0.47;0.30;;;;;;;5.08;83.08;96441.97;5075271;28;20032;-73
2023/11/28 03:17:52;;;;;;;0.45;0.45;;;;;;;5.02;83.37;96423.78;5105921;28;20520;-72
2023/11/28 03:20:18;;;;;;;3.42;0.70;;;;;;;5.07;84.55;96420.88;5113859;28;20023;-73
2023/11/28 03:22:43;;;;;;;0.50;0.50;;;;;;;5.11;79.05;96406.50;5075328;28;20032;-73
2023/11/28 03:25:11;;;;;;;0.30;0.30;;;;;;;5.15;79.71;96406.22;5092868;28;20543;-73
2023/11/28 03:27:37;;;;;;;0.55;0.55;;;;;;;5.16;80.93;96420.34;5093186;28;20097;-73
2023/11/28 03:30:04;;;;;;;0.25;0.25;;;;;;;5.16;83.21;96393.84;5075177;28;20028;-73
2023/11/28 03:32:30;;;;;;;0.40;0.40;;;;;;;5.15;83.30;96405.38;5075233;28;20547;-73
2023/11/28 03:34:55;;;;;;;0.30;0.30;;;;;;;5.18;84.17;96397.25;5093223;28;20169;-73
2023/11/28 03:37:21;;;;;;;0.52;0.45;;;;;;;5.14;86.43;96378.00;5075163;28;20110;-73
2023/11/28 03:39:46;;;;;;;0.32;0.32;;;;;;;5.31;85.92;96380.53;5074865;28;20024;-73
2023/11/28 03:42:12;;;;;;;1.55;0.80;;;;;;;5.33;86.78;96375.13;5093187;28;20028;-73
2023/11/28 03:44:37;;;;;;;0.60;0.60;;;;;;;5.23;89.56;96358.09;5074805;28;20057;-73
2023/11/28 03:47:03;;;;;;;0.20;0.20;;;;;;;5.27;92.64;96359.59;5093027;28;20058;-73
2023/11/28 03:49:30;;;;;;;0.50;0.50;;;;;;;5.18;94.15;96363.66;5092856;28;20121;-73
2023/11/28 03:51:56;;;;;;;0.43;0.43;;;;;;;5.19;97.38;96377.75;5092823;28;20059;-72
2023/11/28 03:54:22;;;;;;;0.20;0.20;;;;;;;5.11;100.00;96350.84;5091527;28;20049;-73
2023/11/28 03:56:47;;;;;;;0.17;0.17;;;;;;;5.03;100.00;96346.00;5091202;28;20048;-74
2023/11/28 03:59:13;;;;;;;0.20;0.20;;;;;;;5.02;100.00;96338.13;5074581;28;20059;-73
2023/11/28 04:01:38;;;;;;;0.38;0.38;;;;;;;4.88;100.00;96350.44;5074392;28;20035;-73
2023/11/28 04:04:04;;;;;;;0.57;0.45;;;;;;;4.79;100.00;96340.38;5074690;28;20526;-73
2023/11/28 04:06:30;;;;;;;0.73;0.30;;;;;;;4.67;100.00;96325.19;5092444;28;20019;-73
2023/11/28 04:08:56;;;;;;;0.20;0.20;;;;;;;4.75;100.00;96332.69;5092639;28;20077;-73
2023/11/28 04:11:22;;;;;;;0.20;0.20;;;;;;;4.74;100.00;96321.22;5057798;28;20398;-73
2023/11/28 04:13:47;;;;;;;0.10;0.10;;;;;;;4.80;100.00;96315.56;5074197;28;20032;-74
2023/11/28 04:16:17;;;;;;;0.20;0.20;;;;;;;4.81;100.00;96321.72;5074338;28;20024;-73
2023/11/28 04:18:46;;;;;;;0.25;0.25;;;;;;;4.89;100.00;96315.03;5074103;28;20105;-73
2023/11/28 04:21:15;;;;;;;0.20;0.20;;;;;;;4.88;100.00;96308.03;5074198;28;20517;-74
2023/11/28 04:23:43;;;;;;;0.65;0.65;;;;;;;4.94;100.00;96328.00;5074132;28;20077;-73
2023/11/28 04:26:08;;;;;;;0.40;0.40;;;;;;;5.10;100.00;96327.94;5074372;28;20107;-73
2023/11/28 04:28:34;;;;;;;0.20;0.20;;;;;;;5.12;100.00;96318.09;5090670;28;20086;-73
2023/11/28 04:31:00;;;;;;;0.20;0.20;;;;;;;5.15;100.00;96315.28;5077003;28;20565;-72
2023/11/28 04:33:25;;;;;;;0.45;0.40;;;;;;;5.23;100.00;96326.28;5094434;28;20072;-72
2023/11/28 04:35:51;;;;;;;0.38;0.38;;;;;;;5.20;100.00;96323.81;5110182;28;20035;-73
2023/11/28 04:38:16;;;;;;;0.57;0.57;;;;;;;5.14;100.00;96310.91;5073780;28;20110;-73
2023/11/28 04:40:42;;;;;;;0.10;0.10;;;;;;;5.08;100.00;96295.38;5073753;28;20082;-73
2023/11/28 04:43:08;;;;;;;0.65;0.43;;;;;;;5.03;100.00;96293.03;5090613;28;20034;-73
2023/11/28 04:45:34;;;;;;;0.73;0.40;;;;;;;5.01;100.00;96309.97;5091826;28;20035;-74
2023/11/28 04:47:59;;;;;;;1.02;0.60;;;;;;;4.97;100.00;96303.13;5091669;28;20028;-72
2023/11/28 04:50:25;;;;;;;0.73;0.73;;;;;;;4.82;100.00;96292.50;5091587;28;20501;-72
2023/11/28 04:52:50;;;;;;;0.10;0.10;;;;;;;4.72;100.00;96291.34;5073491;28;20028;-72
2023/11/28 04:55:16;;;;;;;0.20;0.20;;;;;;;4.68;100.00;96311.00;5073684;28;20059;-72
2023/11/28 04:57:43;;;;;;;0.30;0.30;;;;;;;4.66;100.00;96297.00;5091402;28;20023;-72
2023/11/28 05:00:09;;;;;;;0.20;0.20;;;;;;;4.67;100.00;96293.44;5073760;28;20089;-72
2023/11/28 05:02:35;;;;;;;2.85;1.70;;;;;;;4.78;100.00;96285.69;5056699;28;20065;-72
2023/11/28 05:05:00;;;;;;;0.22;0.22;;;;;;;4.77;100.00;96281.31;5076121;28;20118;-72
2023/11/28 05:07:26;;;;;;;0.82;0.80;;;;;;;4.84;100.00;96297.72;5093626;28;20458;-72
2023/11/28 05:09:51;;;;;;;0.85;0.85;;;;;;;4.89;100.00;96298.31;5111427;28;20031;-73
2023/11/28 05:12:17;;;;;;;0.30;0.30;;;;;;;4.96;100.00;96299.63;5093332;28;20092;-73
2023/11/28 05:14:43;;;;;;;0.28;0.25;;;;;;;5.02;100.00;96303.69;5076289;28;20027;-73
2023/11/28 05:17:08;;;;;;;0.43;0.43;;;;;;;5.05;100.00;96290.25;5093304;28;20027;-72
2023/11/28 05:19:34;;;;;;;0.38;0.38;;;;;;;5.14;100.00;96279.97;5086003;28;20028;-72
2023/11/28 05:22:00;;;;;;;0.20;0.20;;;;;;;5.17;100.00;96265.69;5092050;28;20110;-76
2023/11/28 05:24:25;;;;;;;0.43;0.43;;;;;;;5.19;100.00;96285.00;5087491;28;20446;-77
2023/11/28 05:26:51;;;;;;;0.30;0.30;;;;;;;5.12;100.00;96267.75;5089391;28;20020;-78
2023/11/28 05:29:17;;;;;;;0.25;0.25;;;;;;;5.09;100.00;96286.50;5072895;28;20035;-79
2023/11/28 05:31:42;;;;;;;0.20;0.20;;;;;;;5.03;100.00;96277.13;5072740;28;20403;-79
2023/11/28 05:34:08;;;;;;;0.50;0.50;;;;;;;4.95;100.00;96273.25;5101190;28;20031;-79
2023/11/28 05:36:33;;;;;;;0.10;0.10;;;;;;;4.90;100.00;96268.19;5066164;28;20504;-79
2023/11/28 05:38:59;;;;;;;0.70;0.70;;;;;;;4.79;100.00;96260.06;5083066;28;20028;-80
2023/11/28 05:41:25;;;;;;;0.90;0.40;;;;;;;4.85;100.00;96263.19;5062141;28;20026;-78
2023/11/28 05:43:51;;;;;;;0.20;0.20;;;;;;;4.78;100.00;96253.03;5072609;28;20028;-78
2023/11/28 05:46:16;;;;;;;0.10;0.10;;;;;;;4.78;100.00;96261.84;5072469;28;20403;-78
2023/11/28 05:48:42;;;;;;;0.55;0.40;;;;;;;4.79;100.00;96252.13;5071165;28;20028;-78
2023/11/28 05:51:10;;;;;;;0.52;0.52;;;;;;;4.82;100.00;96234.25;5075685;28;20069;-78
2023/11/28 05:53:36;;;;;;;0.28;0.28;;;;;;;4.83;100.00;96212.09;5093097;28;20024;-78
2023/11/28 05:56:03;;;;;;;1.85;1.27;;;;;;;4.81;100.00;96184.84;5092443;28;20028;-79
2023/11/28 05:58:28;;;;;;;1.55;0.20;;;;;;;4.77;100.00;96180.69;5093022;28;20027;-79
2023/11/28 06:00:54;;;;;;;0.15;0.15;;;;;;;4.84;100.00;96189.97;5092105;28;20490;-78
2023/11/28 06:03:21;;;;;;;0.70;0.68;;;;;;;4.90;100.00;96197.53;5055963;28;20020;-79
2023/11/28 06:05:50;;;;;;;0.40;0.40;;;;;;;4.95;100.00;96186.66;5072885;28;20396;-80
2023/11/28 06:08:15;;;;;;;0.32;0.32;;;;;;;4.85;100.00;96175.78;5076241;28;20422;-78
2023/11/28 06:10:42;;;;;;;0.40;0.40;;;;;;;4.91;100.00;96186.00;5065316;28;20037;-78
2023/11/28 06:13:08;;;;;;;0.57;0.57;;;;;;;5.00;100.00;96175.78;5070685;28;20124;-79
2023/11/28 06:15:33;;;;;;;0.57;0.57;;;;;;;5.01;100.00;96148.34;5072458;28;20365;-80
2023/11/28 06:17:59;;;;;;;0.95;0.60;;;;;;;5.15;100.00;96133.28;5064556;28;20027;-79
2023/11/28 06:20:25;;;;;;;0.32;0.32;;;;;;;5.26;100.00;96151.16;5075838;28;20027;-80
2023/11/28 06:22:50;;;;;;;0.50;0.50;;;;;;;5.34;100.00;96151.50;5064201;28;20082;-80
2023/11/28 06:25:16;;;;;;;0.30;0.30;;;;;;;5.40;100.00;96145.81;5066921;28;20412;-79
2023/11/28 06:27:42;;;;;;;0.57;0.57;;;;;;;5.37;100.00;96140.72;5092874;28;20023;-79
2023/11/28 06:30:08;;;;;;;0.10;0.10;;;;;;;5.45;100.00;96133.97;5092335;28;20340;-79
2023/11/28 06:32:34;;;;;;;0.20;0.20;;;;;;;5.48;100.00;96109.03;5075516;28;20039;-80
2023/11/28 06:34:59;;;;;;;3.17;1.40;;;;;;;5.51;100.00;96106.19;5075459;28;20027;-80
2023/11/28 06:37:25;;;;;;;1.17;0.75;;;;;;;5.53;100.00;96092.84;5075740;28;20104;-80
2023/11/28 06:39:51;;;;;;;3.20;1.45;;;;;;;5.55;100.00;96098.91;5092209;28;20363;-80
2023/11/28 06:42:18;;;;;;;0.50;0.50;;;;;;;5.54;100.00;96068.88;5092535;28;20116;-79
2023/11/28 06:44:43;;;;;;;0.20;0.20;;;;;;;5.58;100.00;96090.75;5075739;28;20024;-80
2023/11/28 06:47:09;;;;;;;0.45;0.45;;;;;;;5.64;100.00;96085.88;5073707;28;20051;-79
2023/11/28 06:49:35;;;;;;;0.30;0.30;;;;;;;5.66;100.00;96089.28;5071857;28;20040;-79
2023/11/28 06:52:02;;;;;;;0.40;0.40;;;;;;;5.84;100.00;96066.84;5071620;28;20028;-79
2023/11/28 06:54:30;;;;;;;0.30;0.30;;;;;;;5.81;100.00;96068.84;5072167;28;20479;-79
2023/11/28 06:56:56;;;;;;;0.30;0.30;;;;;;;5.73;100.00;96064.06;5071478;28;20127;-79
2023/11/28 06:59:21;;;;;;;1.35;0.40;;;;;;;5.90;100.00;96074.44;5110964;28;20448;-79
2023/11/28 07:01:48;;;;;;;0.28;0.28;;;;;;;5.98;100.00;96103.09;5095771;28;20020;-80
2023/11/28 07:04:14;;;;;;;0.10;0.10;;;;;;;5.93;100.00;96070.72;5076619;28;20027;-79
2023/11/28 07:06:40;;;;;;;0.13;0.13;;;;;;;5.96;100.00;96071.38;5058655;28;20380;-79
2023/11/28 07:09:05;;;;;;;0.45;0.45;;;;;;;5.99;100.00;96095.03;5058351;28;20115;-79
2023/11/28 07:11:32;;;;;;;0.30;0.30;;;;;;;5.85;100.00;96112.78;5079634;28;20024;-80
2023/11/28 07:13:58;;;;;;;0.20;0.20;;;;;;;5.76;100.00;96110.75;5114065;28;20406;-79
2023/11/28 07:16:24;;;;;;;0.35;0.35;;;;;;;5.79;100.00;96097.28;5086999;28;20020;-79
2023/11/28 07:18:50;;;;;;;0.47;0.47;;;;;;;5.88;100.00;96089.59;5078589;28;20463;-79
2023/11/28 07:21:15;;;;;;;1.00;0.55;;;;;;;5.89;100.00;96064.78;5078561;28;20122;-79
2023/11/28 07:23:43;;;;;;;0.93;0.52;;;;;;;5.89;100.00;96051.50;5078368;28;20034;-80
2023/11/28 07:26:09;;;;;;;0.20;0.20;;;;;;;5.96;100.00;96058.09;5078191;28;20160;-79
2023/11/28 07:28:35;;;;;;;0.17;0.17;;;;;;;6.04;100.00;96064.66;5078681;28;20023;-79
2023/11/28 07:31:01;;;;;;;1.35;0.63;;;;;;;5.97;100.00;96057.13;5095252;28;20075;-79
2023/11/28 07:33:27;;;;;;;0.40;0.30;;;;;;;6.07;100.00;96054.69;5078101;28;20024;-78
2023/11/28 07:35:52;;;;;;;0.38;0.38;;;;;;;6.09;100.00;96044.00;5095566;28;20070;-79
2023/11/28 07:38:21;;;;;;;0.38;0.38;;;;;;;6.00;100.00;96043.66;5113282;28;20110;-78
2023/11/28 07:40:47;;;;;;;0.30;0.30;;;;;;;6.02;100.00;96022.34;5096233;28;20035;-79
2023/11/28 07:43:13;;;;;;;0.25;0.25;;;;;;;6.06;100.00;96001.75;5076865;28;20035;-79
2023/11/28 07:45:40;;;;;;;0.28;0.28;;;;;;;6.02;100.00;96010.88;5075047;28;20020;-80
2023/11/28 07:48:06;;;;;;;0.68;0.68;;;;;;;6.04;100.00;96012.44;5091618;28;20117;-79
2023/11/28 07:50:31;;;;;;;1.40;0.85;;;;;;;5.97;100.00;96001.41;5074381;28;20495;-80
2023/11/28 07:52:57;;;;;;;5.13;0.60;;;;;;;5.98;100.00;95981.03;5074954;28;20085;-80
2023/11/28 07:55:23;;;;;;;0.20;0.20;;;;;;;5.99;100.00;95975.63;5074520;28;20035;-80
2023/11/28 07:57:49;;;;;;;0.15;0.15;;;;;;;6.05;100.00;96002.69;5058048;28;20051;-80
2023/11/28 08:00:14;;;;;;;0.30;0.30;;;;;;;5.91;100.00;95979.75;5074819;28;20396;-80
2023/11/28 08:02:41;;;;;;;0.40;0.30;;;;;;;6.00;100.00;96006.50;5074669;28;20035;-80
2023/11/28 08:05:07;;;;;;;0.93;0.90;;;;;;;5.99;100.00;96006.63;5057750;28;20020;-80
2023/11/28 08:07:33;;;;;;;1.88;0.70;;;;;;;5.93;100.00;96005.25;5077806;28;20089;-79
2023/11/28 08:10:00;;;;;;;1.27;0.90;;;;;;;5.91;100.00;95999.19;5077580;28;20103;-79
2023/11/28 08:12:26;;;;;;;0.20;0.20;;;;;;;6.00;100.00;96001.19;5077510;28;20400;-78
2023/11/28 08:14:52;;;;;;;0.25;0.25;;;;;;;6.11;100.00;95994.31;5094890;28;20055;-80
2023/11/28 08:17:18;;;;;;;0.20;0.20;;;;;;;6.14;100.00;95994.94;5077338;28;20058;-80
2023/11/28 08:19:43;;;;;;;0.20;0.20;;;;;;;6.11;100.00;95989.00;5077744;28;20031;-80
2023/11/28 08:22:09;;;;;;;0.93;0.93;;;;;;;6.13;100.00;95993.25;5094195;28;20039;-79
2023/11/28 08:24:35;;;;;;;0.40;0.40;;;;;;;6.17;100.00;95984.13;5094396;28;20088;-81
2023/11/28 08:27:00;;;;;;;0.30;0.30;;;;;;;6.10;100.00;95972.22;5077836;28;20032;-80
2023/11/28 08:29:26;;;;;;;6.88;0.57;;;;;;;6.19;100.00;95960.97;5067155;28;20089;-79
2023/11/28 08:31:51;;;;;;;0.45;0.17;;;;;;;6.16;100.00;95961.16;5074061;28;20028;-79
2023/11/28 08:34:19;;;;;;;0.88;0.85;;;;;;;6.07;100.00;95961.81;5073890;28;20035;-79
2023/11/28 08:36:45;;;;;;;0.85;0.20;;;;;;;6.06;100.00;95960.09;5086914;28;20031;-79
2023/11/28 08:39:14;;;;;;;0.22;0.22;;;;;;;6.08;100.00;95966.19;5077325;28;20087;-80
2023/11/28 08:41:41;;;;;;;1.00;0.32;;;;;;;5.99;100.00;95953.56;5082600;28;20042;-80
2023/11/28 08:44:07;;;;;;;0.30;0.30;;;;;;;5.95;100.00;95965.31;5057395;28;20511;-80
2023/11/28 08:46:35;;;;;;;0.70;0.70;;;;;;;5.94;100.00;95966.28;5073695;28;20024;-79
2023/11/28 08:49:00;;;;;;;0.10;0.10;;;;;;;5.95;100.00;95949.41;5073656;28;20521;-80
2023/11/28 08:51:26;;;;;;;0.47;0.47;;;;;;;5.83;100.00;95935.16;5073333;28;20114;-79
2023/11/28 08:53:51;;;;;;;0.13;0.13;;;;;;;5.87;100.00;95926.06;5073331;28;20028;-80
2023/11/28 08:56:17;;;;;;;0.32;0.32;;;;;;;5.92;100.00;95918.63;5090189;28;20043;-79
2023/11/28 08:58:42;;;;;;;0.20;0.20;;;;;;;5.88;100.00;95903.88;5085503;28;20140;-80
2023/11/28 09:01:08;;;;;;;1.27;1.08;;;;;;;5.81;100.00;95896.44;5076749;28;20038;-80
2023/11/28 09:03:34;;;;;;;2.63;1.65;;;;;;;5.76;100.00;95909.16;5074487;28;20111;-79
2023/11/28 09:05:59;;;;;;;0.38;0.38;;;;;;;5.79;100.00;95919.53;5073292;28;20032;-80
2023/11/28 09:08:25;;;;;;;0.25;0.25;;;;;;;5.75;100.00;95889.72;5073107;28;20085;-80
2023/11/28 09:10:50;;;;;;;0.43;0.43;;;;;;;5.80;100.00;95889.41;5056474;28;20384;-80
2023/11/28 09:13:20;;;;;;;0.30;0.30;;;;;;;5.84;100.00;95870.53;5056424;28;20476;-80
2023/11/28 09:15:46;;;;;;;2.10;0.73;;;;;;;5.89;100.00;95852.53;5073479;28;20056;-80
2023/11/28 09:18:12;;;;;;;0.25;0.25;;;;;;;5.98;100.00;95862.47;5073266;28;20398;-80
2023/11/28 09:20:38;;;;;;;2.45;0.85;;;;;;;5.91;100.00;95855.06;5073277;28;20028;-81
2023/11/28 09:23:04;;;;;;;0.75;0.75;;;;;;;5.92;100.00;95838.19;5080911;28;20035;-80
2023/11/28 09:25:30;;;;;;;0.47;0.47;;;;;;;6.00;100.00;95852.59;5074318;28;20131;-80
2023/11/28 09:27:56;;;;;;;0.32;0.32;;;;;;;5.89;100.00;95827.78;5076639;28;20515;-80
2023/11/28 09:30:21;;;;;;;0.40;0.40;;;;;;;6.01;100.00;95832.22;5076193;28;20035;-79
2023/11/28 09:32:48;;;;;;;0.10;0.10;;;;;;;6.07;100.00;95817.66;5093264;28;20058;-80
2023/11/28 09:35:13;;;;;;;0.20;0.20;;;;;;;6.21;100.00;95813.06;5065831;28;20110;-80
2023/11/28 09:37:39;;;;;;;0.20;0.20;;;;;;;6.11;100.00;95820.00;5079939;28;20407;-80
2023/11/28 09:40:07;;;;;;;0.30;0.30;;;;;;;6.16;100.00;95835.56;5073006;28;20032;-80
2023/11/28 09:42:35;;;;;;;0.30;0.30;;;;;;;6.28;100.00;95805.50;5090686;28;20035;-80
2023/11/28 09:45:05;;;;;;;0.20;0.20;;;;;;;6.41;100.00;95779.75;5093548;28;20028;-80
2023/11/28 09:47:38;;;;;;;0.80;0.80;;;;;;;6.45;100.00;95786.53;5075152;28;20031;-80
2023/11/28 09:50:05;;;;;;;0.13;0.13;;;;;;;6.53;100.00;95781.47;5083412;28;20446;-80
2023/11/28 09:52:35;;;;;;;1.65;1.33;;;;;;;6.74;100.00;95773.72;5071951;28;20487;-79
2023/11/28 09:55:03;;;;;;;0.40;0.40;;;;;;;6.92;100.00;95780.31;5052937;28;20044;-81
2023/11/28 09:57:34;;;;;;;0.30;0.30;;;;;;;6.84;100.00;95795.97;5053349;28;20093;-80
2023/11/28 09:59:59;;;;;;;0.22;0.22;;;;;;;6.97;100.00;95773.69;5072939;28;20501;-81
2023/11/28 10:02:27;;;;;;;0.28;0.28;;;;;;;7.01;100.00;95771.66;5073037;28;20027;-80
2023/11/28 10:04:53;;;;;;;0.20;0.20;;;;;;;7.03;100.00;95767.91;5057917;28;20467;-80
2023/11/28 10:07:26;;;;;;;0.30;0.30;;;;;;;7.05;100.00;95765.97;5064924;28;20491;-80
2023/11/28 10:09:51;;;;;;;0.20;0.20;;;;;;;7.01;100.00;95759.19;5069265;28;20085;-79
2023/11/28 10:12:17;;;;;;;0.80;0.80;;;;;;;6.98;100.00;95747.97;5086332;28;20032;-80
2023/11/28 10:14:47;;;;;;;0.28;0.28;;;;;;;7.05;100.00;95743.84;5089447;28;20063;-80
2023/11/28 10:17:15;;;;;;;0.47;0.47;;;;;;;6.95;100.00;95727.75;5073100;28;20060;-80
2023/11/28 10:19:44;;;;;;;0.60;0.60;;;;;;;6.98;100.00;95735.50;5070740;28;20329;-80
2023/11/28 10:22:09;;;;;;;0.13;0.13;;;;;;;6.88;100.00;95734.53;5066573;28;20023;-79
2023/11/28 10:24:35;;;;;;;0.85;0.47;;;;;;;6.81;100.00;95722.66;5080200;28;20028;-80
2023/11/28 10:27:01;;;;;;;0.20;0.20;;;;;;;6.82;100.00;95731.50;5069317;28;20032;-80
2023/11/28 10:29:30;;;;;;;0.50;0.40;;;;;;;6.90;100.00;95714.00;5068462;28;20035;-80
2023/11/28 10:31:56;;;;;;;0.98;0.73;;;;;;;6.84;100.00;95703.84;5088968;28;20052;-80
2023/11/28 10:34:21;;;;;;;0.60;0.60;;;;;;;6.75;100.00;95693.91;5091656;28;20032;-80
2023/11/28 10:36:48;;;;;;;0.25;0.25;;;;;;;6.88;100.00;95707.09;5075876;28;20074;-80
2023/11/28 10:39:15;;;;;;;0.32;0.32;;;;;;;6.81;100.00;95690.78;5076399;28;20540;-80
2023/11/28 10:41:41;;;;;;;0.30;0.30;;;;;;;6.84;100.00;95698.53;5076004;28;20427;-79
2023/11/28 10:44:07;;;;;;;0.30;0.30;;;;;;;6.78;100.00;95699.00;5093062;28;20522;-80
2023/11/28 10:46:35;;;;;;;0.20;0.20;;;;;;;6.87;100.00;95669.06;5092941;28;20617;-80
2023/11/28 10:49:01;;;;;;;0.30;0.30;;;;;;;6.99;100.00;95667.25;5076247;28;20403;-79
2023/11/28 10:51:32;;;;;;;0.20;0.20;;;;;;;7.13;100.00;95650.22;5076853;28;20032;-80
2023/11/28 10:54:07;;;;;;;0.43;0.43;;;;;;;7.19;100.00;95634.66;5072566;28;20021;-80
2023/11/28 10:56:47;;;;;;;0.28;0.28;;;;;;;7.34;100.00;95633.44;5073896;28;20122;-79
2023/11/28 10:59:24;;;;;;;0.43;0.40;;;;;;;7.44;100.00;95637.06;5062883;28;20079;-80
2023/11/28 11:01:50;;;;;;;1.30;0.43;;;;;;;7.38;100.00;95613.56;5087999;28;20035;-80
2023/11/28 11:04:16;;;;;;;1.23;0.98;;;;;;;7.40;100.00;95616.13;5072425;28;20396;-80
2023/11/28 11:06:42;;;;;;;1.55;0.47;;;;;;;7.23;100.00;95584.75;5071961;28;20028;-80
2023/11/28 11:09:09;;;;;;;0.13;0.13;;;;;;;7.09;100.00;95570.75;5085212;28;20476;-80
2023/11/28 11:11:35;;;;;;;0.57;0.52;;;;;;;6.99;100.00;95569.78;5075710;28;20065;-80
2023/11/28 11:14:30;;;;;;;0.50;0.50;;;;;;;6.84;100.00;95568.34;5092198;28;20024;-80
2023/11/28 11:17:01;;;;;;;2.50;0.50;;;;;;;6.73;100.00;95536.47;5080850;28;20032;-79
2023/11/28 11:19:28;;;;;;;0.47;0.47;;;;;;;6.63;100.00;95559.41;5104592;28;20032;-80
2023/11/28 11:22:02;;;;;;;0.73;0.63;;;;;;;6.57;100.00;95546.59;5064778;28;20514;-80
2023/11/28 11:24:28;;;;;;;0.20;0.20;;;;;;;6.67;100.00;95525.47;5051964;28;20028;-80
2023/11/28 11:26:54;;;;;;;0.10;0.10;;;;;;;6.71;100.00;95519.78;5070054;28;20028;-80
2023/11/28 11:29:23;;;;;;;0.52;0.52;;;;;;;6.83;100.00;95532.09;5077734;28;20133;-80
2023/11/28 11:32:00;;;;;;;1.35;0.85;;;;;;;6.95;100.00;95517.81;5108672;28;20465;-79